Time;durP1;ratioP1;P1;durP2;ratioP2;P2;SDS_P1;SDS_P2;PMS_P1;PMS_P2;Temp;Humidity;BMP_temperature;BMP_pressure;BME280_temperature;BME280_humidity;BME280_pressure;Samples;Min_cycle;Max_cycle;Signal;HPM_P1;HPM_P2
2022/04/19 00:02:51;;;;;;;9.77;5.55;;;22.70;36.00;;;;;;6134048;28;81426;-71
2022/04/19 00:05:52;;;;;;;9.30;5.13;;;22.70;35.90;;;;;;6134039;28;80306;-71
2022/04/19 00:08:52;;;;;;;10.05;5.28;;;22.70;35.80;;;;;;6133900;28;80575;-68
2022/04/19 00:11:53;;;;;;;9.90;5.57;;;22.70;35.80;;;;;;6116167;28;81573;-70
2022/04/19 00:14:53;;;;;;;12.40;5.78;;;22.70;35.70;;;;;;6125060;28;81862;-69
2022/04/19 00:17:54;;;;;;;8.00;4.88;;;22.70;35.70;;;;;;6113705;28;80901;-69
2022/04/19 00:20:55;;;;;;;10.77;5.95;;;22.70;35.70;;;;;;6113603;28;81600;-69
2022/04/19 00:23:55;;;;;;;10.50;6.05;;;22.80;35.60;;;;;;6114434;28;81160;-69
2022/04/19 00:26:56;;;;;;;12.52;6.53;;;22.70;35.60;;;;;;6114262;28;80141;-69
2022/04/19 00:29:58;;;;;;;11.68;6.57;;;22.80;35.50;;;;;;6133406;28;83070;-69
2022/04/19 00:33:00;;;;;;;13.07;5.88;;;22.80;35.50;;;;;;6114643;28;81671;-69
2022/04/19 00:36:01;;;;;;;10.55;5.95;;;22.70;35.50;;;;;;6113593;28;81607;-69
2022/04/19 00:39:01;;;;;;;12.10;6.25;;;22.70;35.40;;;;;;6112472;28;82235;-69
2022/04/19 00:42:02;;;;;;;12.82;6.97;;;22.70;36.00;;;;;;6118694;28;80621;-69
2022/04/19 00:45:02;;;;;;;12.63;7.10;;;22.70;35.30;;;;;;6137758;28;82043;-69
2022/04/19 00:48:03;;;;;;;11.35;6.53;;;22.70;35.20;;;;;;6114680;28;83460;-68
2022/04/19 00:51:06;;;;;;;12.13;6.97;;;22.70;35.20;;;;;;6112541;28;83773;-68
2022/04/19 00:54:07;;;;;;;11.45;6.53;;;22.70;35.20;;;;;;6112507;28;82770;-68
2022/04/19 00:57:08;;;;;;;12.52;7.43;;;22.70;35.20;;;;;;6101621;28;80364;-69
2022/04/19 01:00:12;;;;;;;13.07;7.50;;;22.70;35.20;;;;;;6128446;28;83172;-68
2022/04/19 01:03:15;;;;;;;13.48;7.93;;;22.70;35.20;;;;;;6126352;28;82243;-69
2022/04/19 01:06:17;;;;;;;13.85;7.80;;;22.70;35.10;;;;;;6132341;28;83119;-68
2022/04/19 01:09:18;;;;;;;15.00;7.55;;;22.70;35.20;;;;;;6088214;28;83252;-68
2022/04/19 01:15:41;;;;;;;14.30;7.82;;;22.70;35.20;;;;;;6137616;28;80673;-69
2022/04/19 01:18:45;;;;;;;11.90;6.95;;;22.70;35.20;;;;;;6113737;28;83334;-68
2022/04/19 01:21:46;;;;;;;13.13;7.63;;;22.70;35.10;;;;;;6113717;28;80318;-68
2022/04/19 01:24:49;;;;;;;14.23;7.97;;;22.70;35.20;;;;;;6119830;28;82046;-69
2022/04/19 01:27:50;;;;;;;13.93;7.75;;;22.70;35.20;;;;;;6122432;28;82313;-69
2022/04/19 01:30:52;;;;;;;14.30;7.38;;;22.70;35.20;;;;;;6111486;28;86064;-67
2022/04/19 01:33:56;;;;;;;15.05;8.10;;;22.70;35.10;;;;;;6131947;28;83332;-68
2022/04/19 01:36:56;;;;;;;12.95;7.70;;;22.70;35.00;;;;;;6135064;28;82993;-68
2022/04/19 01:43:17;;;;;;;15.25;7.75;;;22.70;35.00;;;;;;6121404;28;83269;-70
2022/04/19 01:46:27;;;;;;;13.75;7.60;;;22.70;34.90;;;;;;6123117;28;81015;-69
2022/04/19 01:49:27;;;;;;;15.70;8.07;;;22.70;34.90;;;;;;6114132;28;80593;-69
2022/04/19 01:52:28;;;;;;;13.82;7.63;;;22.70;34.80;;;;;;6116927;28;82974;-69
2022/04/19 01:55:31;;;;;;;13.55;7.57;;;22.70;34.90;;;;;;6135285;28;82380;-69
2022/04/19 01:58:38;;;;;;;14.10;7.75;;;22.70;34.80;;;;;;6120699;28;83350;-69
2022/04/19 02:01:41;;;;;;;14.63;7.68;;;22.60;34.70;;;;;;6116026;28;82378;-69
2022/04/19 02:04:42;;;;;;;11.55;7.15;;;22.60;34.80;;;;;;6134318;28;80467;-68
2022/04/19 02:07:42;;;;;;;14.75;7.75;;;22.70;34.80;;;;;;6119459;28;81723;-69
2022/04/19 02:10:43;;;;;;;13.32;7.50;;;22.70;34.70;;;;;;6110581;28;81738;-69
2022/04/19 02:13:44;;;;;;;13.40;7.43;;;22.70;34.70;;;;;;6110498;28;81592;-70
2022/04/19 02:16:53;;;;;;;12.95;7.03;;;22.60;34.70;;;;;;6110567;28;81860;-69
2022/04/19 02:19:54;;;;;;;13.25;7.30;;;22.70;34.70;;;;;;6111854;28;82917;-69
2022/04/19 02:22:55;;;;;;;14.27;7.53;;;22.60;34.60;;;;;;6135463;28;80435;-69
2022/04/19 02:25:55;;;;;;;13.65;7.63;;;22.60;34.60;;;;;;6135763;28;83133;-71
2022/04/19 02:28:57;;;;;;;11.50;6.53;;;22.70;34.60;;;;;;6123679;28;82945;-70
2022/04/19 02:32:06;;;;;;;15.50;6.97;;;22.60;34.50;;;;;;6118681;28;82533;-70
2022/04/19 02:35:07;;;;;;;12.45;6.40;;;22.60;34.60;;;;;;6137775;28;80363;-70
2022/04/19 02:38:09;;;;;;;10.85;6.32;;;22.70;34.50;;;;;;6133175;28;81751;-69
2022/04/19 02:41:20;;;;;;;12.15;6.50;;;22.60;34.50;;;;;;6133733;28;82847;-68
2022/04/19 02:44:26;;;;;;;8.52;5.13;;;22.70;34.60;;;;;;6134163;28;82889;-70
2022/04/19 02:47:37;;;;;;;10.43;5.53;;;22.70;34.60;;;;;;6134327;28;83330;-70
2022/04/19 02:50:38;;;;;;;10.68;6.05;;;22.70;34.60;;;;;;6114443;28;83237;-69
2022/04/19 02:53:39;;;;;;;8.50;5.20;;;22.70;34.60;;;;;;6135744;28;80499;-69
2022/04/19 02:56:42;;;;;;;10.68;5.72;;;22.60;34.50;;;;;;6133559;28;83186;-69
2022/04/19 02:59:43;;;;;;;10.40;5.68;;;22.60;34.50;;;;;;6133436;28;82190;-69
2022/04/19 03:02:44;;;;;;;8.93;4.90;;;22.60;34.40;;;;;;6133151;28;83405;-69
2022/04/19 03:05:45;;;;;;;9.38;5.07;;;22.60;34.40;;;;;;6133260;28;81678;-69
2022/04/19 03:08:46;;;;;;;8.65;5.15;;;22.60;34.50;;;;;;6133754;28;82550;-69
2022/04/19 03:11:46;;;;;;;7.53;4.55;;;22.60;34.50;;;;;;6113804;28;83019;-68
2022/04/19 03:14:47;;;;;;;8.13;4.15;;;22.60;34.50;;;;;;6120555;28;81326;-69
2022/04/19 03:17:47;;;;;;;6.90;3.90;;;22.60;34.30;;;;;;6134583;28;82008;-66
2022/04/19 03:20:51;;;;;;;7.43;4.50;;;22.70;34.10;;;;;;6117568;28;83372;-68
2022/04/19 03:27:52;;;;;;;5.25;3.80;;;22.80;33.80;;;;;;6129028;28;82718;-68
2022/04/19 03:30:51;;;;;;;6.63;4.10;;;22.80;33.90;;;;;;6114824;28;86418;-66
2022/04/19 03:33:55;;;;;;;5.82;3.80;;;22.90;33.90;;;;;;6109849;28;82467;-66
2022/04/19 03:36:57;;;;;;;6.45;3.63;;;22.90;33.90;;;;;;6132984;28;81829;-67
2022/04/19 03:39:58;;;;;;;6.38;3.63;;;23.00;33.90;;;;;;6126913;28;83857;-67
2022/04/19 03:42:59;;;;;;;6.38;3.80;;;23.00;33.90;;;;;;6123354;28;83837;-69
2022/04/19 03:46:00;;;;;;;6.63;3.92;;;23.00;33.90;;;;;;6109774;28;82776;-68
2022/04/19 03:49:03;;;;;;;6.18;3.67;;;23.10;33.80;;;;;;6116465;28;82705;-68
2022/04/19 03:52:03;;;;;;;3.90;2.90;;;23.10;33.80;;;;;;6128800;28;82432;-69
2022/04/19 03:55:04;;;;;;;6.25;3.40;;;23.10;33.70;;;;;;6124178;28;80401;-69
2022/04/19 03:58:04;;;;;;;7.00;3.60;;;23.20;33.80;;;;;;6161098;28;83754;-68
2022/04/19 04:01:05;;;;;;;4.75;3.17;;;23.20;33.80;;;;;;6135386;28;80881;-69
2022/04/19 04:04:07;;;;;;;6.15;3.53;;;23.20;33.80;;;;;;6134573;28;82238;-73
2022/04/19 04:07:08;;;;;;;6.95;3.70;;;23.20;33.80;;;;;;6135391;28;82693;-70
2022/04/19 04:10:10;;;;;;;5.95;3.22;;;23.20;33.80;;;;;;6131580;28;83290;-71
2022/04/19 04:13:11;;;;;;;4.32;2.75;;;23.30;33.70;;;;;;6113029;28;83282;-69
2022/04/19 04:16:11;;;;;;;4.93;3.30;;;23.30;33.80;;;;;;6124866;28;82384;-69
2022/04/19 04:19:12;;;;;;;5.70;2.92;;;23.30;33.90;;;;;;6137082;28;83275;-71
2022/04/19 04:22:13;;;;;;;6.43;3.72;;;23.30;34.30;;;;;;6136149;28;83234;-62
2022/04/19 04:25:13;;;;;;;5.60;2.95;;;23.40;35.10;;;;;;6136518;28;83504;-72
2022/04/19 04:28:14;;;;;;;5.78;3.15;;;23.40;35.30;;;;;;6134310;28;81651;-66
2022/04/19 04:31:20;;;;;;;;;;;23.40;35.40;;;;;;6137382;28;80274;-69
2022/04/19 04:34:20;;;;;;;5.35;3.13;;;23.40;35.60;;;;;;6136220;28;81802;-67
2022/04/19 04:37:23;;;;;;;4.20;2.70;;;23.40;35.20;;;;;;6134608;28;80216;-69
2022/04/19 04:40:30;;;;;;;8.13;4.00;;;23.40;35.10;;;;;;6136207;28;83146;-70
2022/04/19 04:43:33;;;;;;;5.00;3.08;;;23.40;35.10;;;;;;6136635;28;82849;-69
2022/04/19 04:49:53;;;;;;;5.53;3.10;;;23.40;34.80;;;;;;6136306;28;81881;-69
2022/04/19 04:52:55;;;;;;;5.03;2.80;;;23.50;35.00;;;;;;6135865;28;83480;-69
2022/04/19 04:55:56;;;;;;;6.80;3.45;;;23.50;34.80;;;;;;6118973;28;80393;-69
2022/04/19 04:59:01;;;;;;;4.97;3.40;;;23.50;34.60;;;;;;6135873;28;82895;-68
2022/04/19 05:02:05;;;;;;;12.02;3.33;;;23.50;34.60;;;;;;6135000;28;82789;-69
2022/04/19 05:05:05;;;;;;;3.90;2.90;;;23.50;34.50;;;;;;6119595;28;83075;-69
2022/04/19 05:08:06;;;;;;;6.78;3.60;;;23.50;34.80;;;;;;6135824;28;83002;-70
2022/04/19 05:11:08;;;;;;;5.65;2.85;;;23.50;35.10;;;;;;6135544;28;83493;-69
2022/04/19 05:14:09;;;;;;;3.83;3.10;;;23.50;35.30;;;;;;6136089;28;82857;-71
2022/04/19 05:17:10;;;;;;;5.90;2.88;;;23.50;35.30;;;;;;6135622;28;83119;-73
2022/04/19 05:20:15;;;;;;;8.47;2.93;;;23.50;35.70;;;;;;6136223;28;83560;-71
2022/04/19 05:23:16;;;;;;;5.05;3.03;;;23.50;36.20;;;;;;6136135;28;83152;-71
2022/04/19 05:26:16;;;;;;;6.43;2.92;;;23.50;36.50;;;;;;6136034;28;81674;-71
2022/04/19 05:29:17;;;;;;;4.30;2.72;;;23.50;36.90;;;;;;6136446;28;83281;-72
2022/04/19 05:32:20;;;;;;;4.72;2.83;;;23.50;37.10;;;;;;6135669;28;81514;-71
2022/04/19 05:35:22;;;;;;;5.75;3.13;;;23.50;36.90;;;;;;6131747;28;82707;-69
2022/04/19 05:38:22;;;;;;;6.65;3.00;;;23.50;36.90;;;;;;6132482;28;80767;-72
2022/04/19 05:41:23;;;;;;;7.57;3.10;;;23.50;36.80;;;;;;6129264;28;80586;-72
2022/04/19 05:44:25;;;;;;;5.80;2.85;;;23.60;36.80;;;;;;6129724;28;83417;-73
2022/04/19 05:47:26;;;;;;;5.78;3.03;;;23.50;36.70;;;;;;6115728;28;82118;-70
2022/04/19 05:50:27;;;;;;;6.28;3.65;;;23.50;36.50;;;;;;6112548;28;80336;-70
2022/04/19 05:53:27;;;;;;;5.05;2.75;;;23.50;36.80;;;;;;6124176;28;80492;-71
2022/04/19 05:56:30;;;;;;;5.95;3.03;;;23.50;36.70;;;;;;6125721;28;82849;-71
2022/04/19 05:59:30;;;;;;;5.55;3.00;;;23.50;36.70;;;;;;6111587;28;83108;-71
2022/04/19 06:05:50;;;;;;;5.32;3.42;;;23.50;36.60;;;;;;6129383;28;83593;-72
2022/04/19 06:08:53;;;;;;;5.78;2.97;;;23.50;36.90;;;;;;6131221;28;81319;-69
2022/04/19 06:11:54;;;;;;;5.90;3.55;;;23.50;36.90;;;;;;6133169;28;82719;-77
2022/04/19 06:14:55;;;;;;;7.20;3.88;;;23.50;37.20;;;;;;6134351;28;82140;-75
2022/04/19 06:17:58;;;;;;;7.20;3.38;;;23.50;36.90;;;;;;6134407;28;83767;-66
2022/04/19 06:21:16;;;;;;;8.35;4.57;;;23.50;36.50;;;;;;6135249;28;83386;-75
2022/04/19 06:24:17;;;;;;;6.68;3.72;;;23.50;36.10;;;;;;6130700;28;83194;-64
2022/04/19 06:27:18;;;;;;;6.00;3.28;;;23.50;36.00;;;;;;6130279;28;83365;-72
2022/04/19 06:30:19;;;;;;;8.60;3.58;;;23.50;35.50;;;;;;6107223;28;83119;-70
2022/04/19 06:33:19;;;;;;;8.07;3.55;;;23.50;35.60;;;;;;6128280;28;80853;-68
2022/04/19 06:36:20;;;;;;;6.95;4.03;;;23.50;35.50;;;;;;6135151;28;82029;-70
2022/04/19 06:39:20;;;;;;;6.80;3.65;;;23.50;35.30;;;;;;6120209;28;81138;-70
2022/04/19 06:42:24;;;;;;;8.73;4.05;;;23.50;35.10;;;;;;6094219;28;83554;-71
2022/04/19 06:45:51;;;;;;;8.20;3.88;;;23.50;34.90;;;;;;6109608;28;85367;-70
2022/04/19 06:48:58;;;;;;;5.65;3.38;;;23.50;34.70;;;;;;6120426;28;83396;-74
2022/04/19 06:51:59;;;;;;;8.48;3.90;;;23.50;34.40;;;;;;6125870;28;82872;-71
2022/04/19 06:55:00;;;;;;;5.60;3.70;;;23.40;34.10;;;;;;6119798;28;82602;-69
2022/04/19 06:58:00;;;;;;;5.70;3.22;;;23.40;34.20;;;;;;6109573;28;82037;-69
2022/04/19 07:01:01;;;;;;;5.55;3.28;;;23.40;34.30;;;;;;6109389;28;83492;-70
2022/04/19 07:04:02;;;;;;;7.60;3.80;;;23.40;33.90;;;;;;6115145;28;83105;-69
2022/04/19 07:07:05;;;;;;;23.27;4.00;;;23.40;33.90;;;;;;6113805;28;82652;-70
2022/04/19 07:10:06;;;;;;;8.35;3.63;;;23.40;33.70;;;;;;6125881;28;83633;-74
2022/04/19 07:13:07;;;;;;;6.05;3.65;;;23.40;33.90;;;;;;6111299;28;83620;-67
2022/04/19 07:16:08;;;;;;;4.72;3.13;;;23.40;34.00;;;;;;6111209;28;81370;-73
2022/04/19 07:19:08;;;;;;;8.30;3.63;;;23.40;33.80;;;;;;6109865;28;82756;-74
2022/04/19 07:29:10;;;;;;;6.35;3.35;;;23.40;34.40;;;;;;6109355;28;82700;-70
2022/04/19 07:32:12;;;;;;;7.45;3.67;;;23.40;33.80;;;;;;6109789;28;83274;-74
2022/04/19 07:35:29;;;;;;;6.85;3.53;;;23.40;33.80;;;;;;6130523;28;82202;-71
2022/04/19 07:38:30;;;;;;;6.45;3.28;;;23.40;33.90;;;;;;6132827;28;83234;-68
2022/04/19 07:41:39;;;;;;;7.78;3.72;;;23.40;33.90;;;;;;6108891;28;80214;-68
2022/04/19 07:44:44;;;;;;;4.93;2.97;;;23.50;34.00;;;;;;6109125;28;83402;-72
2022/04/19 07:47:45;;;;;;;7.85;3.67;;;23.50;34.10;;;;;;6119581;28;82240;-73
2022/04/19 07:50:46;;;;;;;7.03;3.15;;;23.50;34.30;;;;;;6124191;28;83465;-72
2022/04/19 07:53:46;;;;;;;7.93;3.33;;;23.60;34.60;;;;;;6132850;28;81457;-69
2022/04/19 07:56:47;;;;;;;4.97;3.08;;;23.60;34.60;;;;;;6129531;28;80982;-71
2022/04/19 07:59:47;;;;;;;7.32;3.30;;;23.70;34.60;;;;;;6129667;28;80391;-75
2022/04/19 08:02:50;;;;;;;5.72;3.20;;;23.70;34.80;;;;;;6128193;28;83280;-72
2022/04/19 08:05:52;;;;;;;6.10;3.10;;;23.70;35.00;;;;;;6133074;28;82388;-71
2022/04/19 08:08:54;;;;;;;5.20;3.20;;;23.80;35.10;;;;;;6133015;28;82503;-80
2022/04/19 08:11:55;;;;;;;5.07;3.13;;;23.80;35.00;;;;;;6111967;28;83158;-65
2022/04/19 08:14:56;;;;;;;8.73;3.35;;;23.90;35.10;;;;;;6098330;28;83284;-66
2022/04/19 08:17:57;;;;;;;8.70;3.63;;;23.90;35.10;;;;;;6109345;28;83175;-70
2022/04/19 08:20:57;;;;;;;7.28;3.42;;;24.00;35.30;;;;;;6111941;28;82475;-70
2022/04/19 08:23:58;;;;;;;3.70;3.10;;;24.00;35.30;;;;;;6131902;28;83179;-73
2022/04/19 08:26:59;;;;;;;7.18;3.03;;;24.00;35.30;;;;;;6110833;28;81662;-71
2022/04/19 08:30:02;;;;;;;6.25;3.30;;;24.00;35.30;;;;;;6111799;28;83183;-70
2022/04/19 08:33:03;;;;;;;6.05;3.17;;;24.00;35.30;;;;;;6133323;28;80456;-69
2022/04/19 08:36:04;;;;;;;9.95;3.63;;;24.10;35.30;;;;;;6137967;28;80327;-70
2022/04/19 08:39:04;;;;;;;7.47;3.25;;;24.10;35.20;;;;;;6137401;28;80413;-70
2022/04/19 08:42:05;;;;;;;6.18;3.22;;;24.10;35.30;;;;;;6136207;28;82118;-70
2022/04/19 08:45:07;;;;;;;6.95;3.25;;;24.10;35.20;;;;;;6135857;28;83141;-70
2022/04/19 08:48:09;;;;;;;5.20;3.15;;;24.10;35.30;;;;;;6126824;28;80626;-70
2022/04/19 08:51:10;;;;;;;4.65;2.75;;;24.10;35.20;;;;;;6117164;28;80312;-72
2022/04/19 08:57:30;;;;;;;4.55;2.67;;;24.10;35.40;;;;;;6129749;28;80152;-71
2022/04/19 09:00:30;;;;;;;4.38;2.70;;;24.00;35.70;;;;;;6132674;28;83146;-70
2022/04/19 09:03:31;;;;;;;6.07;3.45;;;24.00;35.60;;;;;;6138747;28;80620;-70
2022/04/19 09:06:31;;;;;;;4.43;3.13;;;24.00;35.50;;;;;;6116071;28;80762;-71
2022/04/19 09:09:34;;;;;;;4.70;3.20;;;24.00;35.40;;;;;;6113984;28;80231;-71
2022/04/19 09:12:35;;;;;;;7.00;3.95;;;24.00;35.30;;;;;;6129808;28;81054;-70
2022/04/19 09:15:36;;;;;;;7.07;3.17;;;24.00;35.20;;;;;;6138392;28;80716;-69
2022/04/19 09:18:36;;;;;;;4.57;3.20;;;23.90;35.10;;;;;;6134646;28;80406;-69
2022/04/19 09:21:37;;;;;;;4.65;3.13;;;24.00;35.00;;;;;;6137736;28;81042;-71
2022/04/19 09:24:38;;;;;;;5.15;2.53;;;24.00;34.90;;;;;;6139510;28;81285;-69
2022/04/19 09:27:39;;;;;;;4.75;3.20;;;24.00;34.90;;;;;;6134831;28;80190;-69
2022/04/19 09:30:39;;;;;;;5.30;3.35;;;24.00;34.80;;;;;;6137908;28;80748;-69
2022/04/19 09:33:40;;;;;;;5.72;3.30;;;24.00;34.80;;;;;;6137320;28;80856;-68
2022/04/19 09:36:40;;;;;;;8.23;3.30;;;24.00;34.80;;;;;;6136466;28;82028;-71
2022/04/19 09:39:41;;;;;;;6.43;3.33;;;24.00;34.70;;;;;;6137443;28;81832;-68
2022/04/19 09:42:41;;;;;;;8.52;3.10;;;24.00;34.80;;;;;;6136756;28;80517;-74
2022/04/19 09:45:42;;;;;;;8.60;3.08;;;24.00;34.80;;;;;;6136377;28;80644;-65
2022/04/19 09:48:45;;;;;;;6.65;3.15;;;24.00;34.80;;;;;;6137582;28;80021;-69
2022/04/19 09:51:45;;;;;;;14.95;3.40;;;24.00;35.00;;;;;;6133863;28;80607;-71
2022/04/19 09:54:46;;;;;;;4.82;2.97;;;23.90;35.30;;;;;;6131067;28;83643;-70
2022/04/19 09:57:48;;;;;;;4.78;3.30;;;24.00;35.20;;;;;;6134837;28;81568;-70
2022/04/19 10:00:49;;;;;;;8.40;3.85;;;24.00;35.10;;;;;;6121689;28;81745;-70
2022/04/19 10:10:28;;;;;;;5.50;3.70;;;24.00;35.40;;;;;;6135378;28;83374;-69
2022/04/19 10:13:29;;;;;;;7.18;3.95;;;24.00;35.50;;;;;;6124014;28;83644;-70
2022/04/19 10:16:30;;;;;;;6.28;3.45;;;24.00;35.80;;;;;;6116787;28;80860;-70
2022/04/19 10:19:30;;;;;;;5.88;3.72;;;24.00;35.70;;;;;;6129351;28;80745;-71
2022/04/19 10:22:31;;;;;;;10.15;4.35;;;24.00;36.70;;;;;;6123889;28;82059;-72
2022/04/19 10:25:31;;;;;;;7.30;4.28;;;24.00;37.00;;;;;;6126184;28;81344;-72
2022/04/19 10:28:32;;;;;;;7.55;4.10;;;24.00;36.70;;;;;;6129406;28;80969;-70
2022/04/19 10:31:35;;;;;;;7.13;4.07;;;24.00;36.80;;;;;;6128158;28;81628;-73
2022/04/19 10:34:35;;;;;;;8.52;4.35;;;24.00;37.00;;;;;;6131559;28;81612;-70
2022/04/19 10:37:36;;;;;;;5.95;4.40;;;24.00;36.30;;;;;;6125568;28;80696;-69
2022/04/19 10:40:37;;;;;;;8.90;4.45;;;24.00;36.30;;;;;;6124567;28;80769;-69
2022/04/19 10:43:37;;;;;;;10.00;4.30;;;24.00;36.30;;;;;;6129379;28;80571;-71
2022/04/19 10:46:38;;;;;;;10.90;5.00;;;24.00;36.30;;;;;;6120908;28;81527;-70
2022/04/19 10:49:38;;;;;;;6.80;3.95;;;23.90;36.10;;;;;;6124090;28;81641;-70
2022/04/19 10:52:39;;;;;;;10.48;4.65;;;23.90;35.90;;;;;;6124402;28;81394;-69
2022/04/19 10:55:40;;;;;;;9.25;4.22;;;23.90;35.80;;;;;;6135783;28;81773;-70
2022/04/19 10:58:41;;;;;;;6.78;3.80;;;23.90;35.70;;;;;;6125377;28;83636;-69
2022/04/19 11:01:41;;;;;;;7.70;4.35;;;23.90;35.40;;;;;;6109097;28;83303;-69
2022/04/19 11:04:42;;;;;;;12.02;4.45;;;23.90;35.10;;;;;;6117869;28;80763;-68
2022/04/19 11:07:43;;;;;;;7.32;3.75;;;23.90;34.80;;;;;;6126155;28;80877;-68
2022/04/19 11:10:43;;;;;;;10.27;3.95;;;23.90;34.80;;;;;;6125493;28;81741;-69
2022/04/19 11:13:44;;;;;;;10.70;4.25;;;23.90;34.90;;;;;;6131488;28;80657;-68
2022/04/19 11:16:44;;;;;;;12.95;4.80;;;23.90;34.60;;;;;;6132927;28;81955;-68
2022/04/19 11:19:45;;;;;;;8.75;4.47;;;23.80;34.20;;;;;;6113519;28;80682;-70
2022/04/19 11:22:46;;;;;;;8.45;4.45;;;23.80;33.90;;;;;;6129814;28;80328;-67
2022/04/19 11:25:47;;;;;;;9.43;5.00;;;23.70;33.60;;;;;;6117368;28;81899;-68
2022/04/19 11:28:47;;;;;;;15.10;4.40;;;23.70;33.70;;;;;;6135572;28;81117;-66
2022/04/19 11:31:48;;;;;;;8.65;4.93;;;23.60;33.70;;;;;;6135687;28;81014;-67
2022/04/19 11:34:48;;;;;;;14.82;5.38;;;23.60;34.40;;;;;;6135404;28;80933;-66
2022/04/19 11:37:49;;;;;;;28.73;5.15;;;23.70;34.20;;;;;;6134893;28;80459;-68
2022/04/19 11:47:24;;;;;;;18.43;4.97;;;23.60;33.60;;;;;;6129861;28;80590;-72
2022/04/19 11:50:25;;;;;;;20.05;4.70;;;23.60;33.50;;;;;;6133945;28;80395;-68
2022/04/19 11:53:26;;;;;;;12.75;4.78;;;23.60;34.10;;;;;;6132629;28;80549;-68
2022/04/19 11:56:26;;;;;;;18.75;4.63;;;23.50;33.20;;;;;;6131760;28;81176;-68
2022/04/19 11:59:27;;;;;;;13.23;3.80;;;23.50;33.40;;;;;;6134006;28;80810;-68
2022/04/19 12:02:28;;;;;;;13.05;4.25;;;23.50;33.30;;;;;;6133705;28;80326;-66
2022/04/19 12:05:30;;;;;;;12.00;4.47;;;23.50;33.30;;;;;;6131259;28;80539;-68
2022/04/19 12:08:33;;;;;;;8.50;4.22;;;23.40;33.10;;;;;;6130539;28;82295;-68
2022/04/19 12:11:33;;;;;;;6.78;4.40;;;23.40;33.00;;;;;;6131284;28;81817;-69
2022/04/19 12:14:34;;;;;;;11.05;4.60;;;23.30;33.00;;;;;;6138875;28;80200;-69
2022/04/19 12:17:34;;;;;;;6.63;3.83;;;23.30;32.90;;;;;;6137256;28;80551;-69
2022/04/19 12:20:35;;;;;;;9.48;4.80;;;23.30;32.90;;;;;;6138509;28;80298;-68
2022/04/19 12:23:37;;;;;;;12.23;3.72;;;23.30;33.00;;;;;;6135962;28;80710;-68
2022/04/19 12:26:38;;;;;;;7.72;3.92;;;23.30;32.90;;;;;;6137237;28;81444;-69
2022/04/19 12:29:38;;;;;;;5.63;4.22;;;23.30;33.10;;;;;;6140233;28;80817;-67
2022/04/19 12:32:39;;;;;;;7.30;3.88;;;23.20;32.80;;;;;;6129125;28;80646;-67
2022/04/19 12:35:40;;;;;;;6.45;3.67;;;23.20;32.90;;;;;;6135365;28;83344;-66
2022/04/19 12:38:41;;;;;;;5.45;3.90;;;23.20;32.60;;;;;;6134682;28;83532;-66
2022/04/19 12:41:45;;;;;;;10.75;4.03;;;23.20;32.70;;;;;;6135952;28;80462;-67
2022/04/19 12:44:45;;;;;;;5.28;3.63;;;23.30;32.90;;;;;;6136566;28;80587;-67
2022/04/19 12:47:46;;;;;;;4.53;3.20;;;23.30;33.00;;;;;;6132134;28;81014;-66
2022/04/19 12:50:47;;;;;;;6.22;4.22;;;23.30;33.10;;;;;;6136375;28;80749;-68
2022/04/19 12:53:48;;;;;;;9.85;3.85;;;23.30;33.10;;;;;;6120739;28;80600;-66
2022/04/19 12:56:49;;;;;;;6.18;3.85;;;23.30;33.50;;;;;;6122878;28;80584;-66
2022/04/19 12:59:49;;;;;;;6.93;3.88;;;23.30;33.60;;;;;;6135353;28;81780;-66
2022/04/19 13:02:50;;;;;;;8.30;4.07;;;23.30;33.50;;;;;;6129963;28;80289;-66
2022/04/19 13:12:35;;;;;;;3.75;3.13;;;23.40;33.90;;;;;;6117431;28;81441;-68
2022/04/19 13:15:36;;;;;;;12.32;3.47;;;23.50;34.00;;;;;;6123474;28;81122;-68
2022/04/19 13:18:36;;;;;;;4.85;2.60;;;23.50;33.90;;;;;;6124985;28;80650;-68
2022/04/19 13:21:38;;;;;;;8.30;3.20;;;23.50;34.00;;;;;;6120898;28;80538;-69
2022/04/19 13:24:39;;;;;;;6.78;3.58;;;23.50;34.00;;;;;;6128509;28;80695;-70
2022/04/19 13:27:40;;;;;;;6.50;3.70;;;23.50;34.00;;;;;;6126812;28;81912;-69
2022/04/19 13:30:43;;;;;;;5.60;2.67;;;23.60;34.10;;;;;;6130633;28;82215;-68
2022/04/19 13:33:44;;;;;;;4.03;2.88;;;23.60;33.90;;;;;;6136907;28;80481;-69
2022/04/19 13:36:45;;;;;;;4.47;2.72;;;23.70;33.90;;;;;;6134851;28;83305;-66
2022/04/19 13:39:45;;;;;;;4.78;3.28;;;23.70;33.80;;;;;;6132054;28;80229;-66
2022/04/19 13:42:46;;;;;;;5.22;2.88;;;23.70;33.80;;;;;;6125584;28;82336;-70
2022/04/19 13:45:47;;;;;;;4.95;2.90;;;23.80;34.20;;;;;;6136911;28;80510;-66
2022/04/19 13:48:47;;;;;;;6.10;2.88;;;23.80;34.20;;;;;;6133933;28;80959;-67
2022/04/19 13:51:48;;;;;;;6.57;3.63;;;23.90;34.00;;;;;;6137029;28;81611;-71
2022/04/19 13:54:48;;;;;;;6.10;3.20;;;23.90;33.90;;;;;;6121978;28;80275;-70
2022/04/19 13:57:50;;;;;;;4.05;2.83;;;23.90;33.80;;;;;;6127130;28;80367;-68
2022/04/19 14:00:50;;;;;;;5.30;2.97;;;24.00;33.80;;;;;;6120715;28;80420;-70
2022/04/19 14:03:51;;;;;;;4.35;2.80;;;24.00;33.70;;;;;;6129787;28;83537;-68
2022/04/19 14:06:52;;;;;;;3.22;2.58;;;23.90;33.60;;;;;;6137158;28;80364;-69
2022/04/19 14:09:53;;;;;;;6.22;3.35;;;24.00;33.60;;;;;;6134605;28;83153;-68
2022/04/19 14:12:54;;;;;;;9.50;2.95;;;24.00;33.80;;;;;;6136482;28;79947;-68
2022/04/19 14:15:54;;;;;;;6.85;2.92;;;23.90;33.60;;;;;;6134583;28;83136;-68
2022/04/19 14:18:55;;;;;;;8.30;3.22;;;24.00;34.00;;;;;;6135937;28;80674;-68
2022/04/19 14:21:55;;;;;;;3.90;2.97;;;24.00;33.60;;;;;;6135829;28;80651;-68
2022/04/19 14:24:56;;;;;;;3.97;2.85;;;24.00;33.50;;;;;;6125091;28;81053;-68
2022/04/19 14:27:57;;;;;;;3.33;2.72;;;24.00;33.30;;;;;;6130408;28;80833;-68
2022/04/19 14:34:17;;;;;;;7.38;3.08;;;24.00;33.30;;;;;;6135165;28;80699;-69
2022/04/19 14:37:17;;;;;;;5.57;3.20;;;24.00;33.60;;;;;;6135872;28;81521;-69
2022/04/19 14:40:18;;;;;;;5.65;3.20;;;24.00;33.90;;;;;;6124783;28;80364;-68
2022/04/19 14:43:18;;;;;;;6.63;3.05;;;24.00;34.10;;;;;;6118661;28;80388;-68
2022/04/19 14:46:19;;;;;;;6.75;3.00;;;24.10;34.10;;;;;;6126278;28;80545;-69
2022/04/19 14:49:19;;;;;;;3.15;2.45;;;24.10;33.60;;;;;;6126541;28;81440;-69
2022/04/19 14:52:22;;;;;;;3.83;2.95;;;24.00;33.60;;;;;;6121019;28;80440;-69
2022/04/19 14:55:22;;;;;;;3.67;2.67;;;24.00;33.50;;;;;;6130497;28;80349;-69
2022/04/19 14:58:23;;;;;;;3.72;2.75;;;24.00;33.40;;;;;;6134704;28;80364;-69
2022/04/19 15:01:23;;;;;;;3.97;3.08;;;24.00;33.40;;;;;;6120268;28;80575;-70
2022/04/19 15:04:24;;;;;;;5.82;2.83;;;24.00;33.40;;;;;;6126775;28;80605;-70
2022/04/19 15:07:26;;;;;;;3.42;2.42;;;24.00;33.50;;;;;;6126763;28;80815;-69
2022/04/19 15:10:27;;;;;;;4.25;3.05;;;23.90;33.30;;;;;;6126217;28;81106;-69
2022/04/19 15:13:27;;;;;;;5.20;2.65;;;23.90;33.30;;;;;;6135516;28;80473;-70
2022/04/19 15:16:28;;;;;;;5.93;3.08;;;23.90;33.20;;;;;;6122753;28;81472;-68
2022/04/19 15:19:28;;;;;;;4.78;3.28;;;23.90;33.30;;;;;;6131207;28;81340;-69
2022/04/19 15:22:29;;;;;;;4.63;3.00;;;23.90;33.40;;;;;;6125392;28;81704;-68
2022/04/19 15:25:29;;;;;;;4.60;3.38;;;23.90;33.30;;;;;;6125624;28;80470;-70
2022/04/19 15:28:31;;;;;;;3.38;2.88;;;23.90;33.20;;;;;;6133024;28;81780;-70
2022/04/19 15:31:32;;;;;;;3.40;2.85;;;23.90;33.10;;;;;;6133348;28;81038;-71
2022/04/19 15:34:32;;;;;;;3.55;2.78;;;23.90;33.10;;;;;;6135224;28;80764;-67
2022/04/19 15:37:33;;;;;;;3.88;2.90;;;23.90;33.10;;;;;;6124709;28;80507;-71
2022/04/19 15:40:33;;;;;;;3.03;2.45;;;23.90;33.10;;;;;;6131201;28;80795;-68
2022/04/19 15:43:34;;;;;;;4.57;2.80;;;23.90;33.10;;;;;;6113609;28;82352;-68
2022/04/19 15:46:36;;;;;;;4.82;3.17;;;23.90;33.00;;;;;;6125425;28;80261;-68
2022/04/19 15:49:36;;;;;;;4.70;3.03;;;23.90;33.00;;;;;;6135060;28;80575;-67
2022/04/19 15:52:37;;;;;;;3.60;2.55;;;23.80;33.00;;;;;;6123663;28;80484;-69
2022/04/19 15:55:38;;;;;;;2.83;2.30;;;23.80;32.90;;;;;;6124162;28;80593;-67
2022/04/19 15:58:38;;;;;;;4.93;3.40;;;23.80;33.00;;;;;;6133792;28;80297;-69
2022/04/19 16:01:39;;;;;;;3.92;2.70;;;23.80;33.00;;;;;;6114426;28;81743;-70
2022/04/19 16:04:39;;;;;;;4.55;3.15;;;23.70;33.00;;;;;;6133361;28;80601;-71
2022/04/19 16:07:40;;;;;;;5.30;2.78;;;23.80;33.20;;;;;;6134269;28;81517;-70
2022/04/19 16:10:40;;;;;;;3.97;3.05;;;23.80;33.80;;;;;;6134705;28;81314;-70
2022/04/19 16:13:41;;;;;;;5.63;3.20;;;23.80;33.30;;;;;;6134482;28;81463;-71
2022/04/19 16:23:20;;;;;;;8.40;2.97;;;23.70;33.30;;;;;;6113402;28;80404;-73
2022/04/19 16:26:21;;;;;;;4.05;2.90;;;23.70;33.20;;;;;;6125620;28;80501;-72
2022/04/19 16:29:22;;;;;;;5.07;3.20;;;23.70;33.30;;;;;;6136079;28;80484;-71
2022/04/19 16:32:22;;;;;;;7.68;3.33;;;23.70;33.30;;;;;;6125728;28;80476;-70
2022/04/19 16:35:23;;;;;;;4.78;3.28;;;23.70;33.40;;;;;;6111428;28;80574;-72
2022/04/19 16:38:24;;;;;;;7.55;3.38;;;23.70;33.40;;;;;;6127513;28;81540;-70
2022/04/19 16:41:25;;;;;;;4.60;2.97;;;23.70;33.40;;;;;;6133755;28;81761;-75